Time;durP1;ratioP1;P1;durP2;ratioP2;P2;SDS_P1;SDS_P2;PMS_P1;PMS_P2;Temp;Humidity;BMP_temperature;BMP_pressure;BME280_temperature;BME280_humidity;BME280_pressure;Samples;Min_cycle;Max_cycle;Signal;HPM_P1;HPM_P2
2023/10/24 14:29:04;;;;;;;;;0.67;0.67;;;;;24.05;38.59;100146.88;5653021;23;46541;-75
2023/10/24 14:31:30;;;;;;;;;0.00;0.00;;;;;23.98;37.92;100130.16;4877450;29;45286;-71
2023/10/24 14:33:56;;;;;;;;;1.33;0.00;;;;;23.88;37.63;100133.25;4880476;29;45468;-72
2023/10/24 14:36:22;;;;;;;;;1.00;1.00;;;;;23.70;37.57;100113.50;4880105;29;46098;-72
2023/10/24 14:38:47;;;;;;;;;2.00;0.00;;;;;23.61;36.89;100118.22;4880405;29;45961;-72
2023/10/24 14:41:12;;;;;;;;;1.33;1.33;;;;;23.47;37.29;100106.81;4881540;29;45285;-72
2023/10/24 14:43:38;;;;;;;;;1.00;1.00;;;;;23.53;37.18;100127.22;4881510;29;45388;-73
2023/10/24 14:46:03;;;;;;;;;1.00;0.00;;;;;23.45;37.12;100124.75;4880979;29;46116;-73
2023/10/24 14:48:29;;;;;;;;;2.33;1.00;;;;;23.31;36.62;100110.72;4880021;29;45314;-73
2023/10/24 14:50:54;;;;;;;;;5.00;1.67;;;;;23.23;37.32;100111.75;4880179;29;45436;-75
2023/10/24 14:53:19;;;;;;;;;2.00;0.67;;;;;23.31;37.67;100122.16;4881474;29;45229;-75
2023/10/24 14:55:45;;;;;;;;;1.00;1.00;;;;;23.36;37.91;100119.69;4881191;29;45975;-75
2023/10/24 14:58:11;;;;;;;;;0.00;0.00;;;;;23.38;38.14;100120.28;4881075;29;45249;-75
2023/10/24 15:00:36;;;;;;;;;0.00;0.00;;;;;23.34;37.99;100102.34;4880435;29;45219;-75
2023/10/24 15:03:01;;;;;;;;;3.00;1.00;;;;;23.49;38.00;100118.88;4881199;29;45420;-75
2023/10/24 15:05:27;;;;;;;;;0.00;0.00;;;;;23.41;38.07;100100.47;4871012;29;46415;-75
2023/10/24 15:07:52;;;;;;;;;2.33;1.00;;;;;23.46;37.89;100098.03;4860974;29;45258;-75
2023/10/24 15:10:17;;;;;;;;;2.67;1.00;;;;;23.60;38.37;100106.00;4864560;29;45266;-75
2023/10/24 15:12:43;;;;;;;;;0.00;0.00;;;;;23.50;37.93;100090.47;4881124;29;45240;-74
2023/10/24 15:15:08;;;;;;;;;0.33;0.33;;;;;23.66;38.06;100113.09;4880072;29;50271;-76
2023/10/24 15:17:34;;;;;;;;;0.00;0.00;;;;;23.68;38.46;100099.63;4880951;29;45372;-73
2023/10/24 15:19:59;;;;;;;;;0.00;0.00;;;;;23.61;38.35;100086.34;4880139;29;45421;-77
2023/10/24 15:22:24;;;;;;;;;1.00;1.00;;;;;23.63;38.10;100084.31;4879118;29;45457;-77
2023/10/24 15:24:50;;;;;;;;;1.00;1.00;;;;;23.77;38.31;100102.84;4879828;29;45987;-76
2023/10/24 15:27:17;;;;;;;;;1.67;0.67;;;;;23.77;38.52;100098.34;4880158;29;45294;-77
2023/10/24 15:29:42;;;;;;;;;0.00;0.00;;;;;23.78;38.68;100092.03;4879760;29;45513;-76
2023/10/24 15:32:11;;;;;;;;;0.00;0.00;;;;;23.83;38.52;100096.72;4880038;29;45427;-73
2023/10/24 15:34:36;;;;;;;;;0.67;0.00;;;;;23.84;38.28;100091.19;4879973;29;46974;-76
2023/10/24 15:37:05;;;;;;;;;1.00;0.00;;;;;23.87;38.41;100087.28;4879840;29;45364;-73
2023/10/24 15:39:30;;;;;;;;;2.33;0.00;;;;;23.84;38.69;100082.38;4870873;29;45500;-72
2023/10/24 15:41:56;;;;;;;;;0.00;0.00;;;;;23.83;39.04;100086.91;4864912;29;45427;-73
2023/10/24 15:44:21;;;;;;;;;0.00;0.00;;;;;23.89;39.15;100084.44;4879402;29;46458;-73
2023/10/24 15:46:46;;;;;;;;;0.00;0.00;;;;;23.87;38.88;100087.28;4877343;29;45389;-73
2023/10/24 15:49:12;;;;;;;;;0.33;0.33;;;;;23.87;38.75;100076.66;4874063;29;45515;-73
2023/10/24 15:51:39;;;;;;;;;1.33;1.00;;;;;23.92;39.14;100081.31;4879740;29;45326;-73
2023/10/24 15:54:05;;;;;;;;;0.00;0.00;;;;;23.69;38.82;100037.50;4880153;29;45403;-72
2023/10/24 15:56:30;;;;;;;;;1.00;0.00;;;;;23.89;38.99;100063.97;4868362;29;45266;-72
2023/10/24 15:58:55;;;;;;;;;0.67;0.33;;;;;23.94;38.88;100071.31;4877285;29;45366;-73
2023/10/24 16:01:25;;;;;;;;;2.00;0.33;;;;;23.82;38.92;100050.72;4880500;29;45432;-72
2023/10/24 16:03:50;;;;;;;;;1.00;1.00;;;;;23.81;38.90;100054.41;4882429;29;47249;-73
2023/10/24 16:06:16;;;;;;;;;1.00;1.00;;;;;23.93;39.23;100067.84;4862086;29;45444;-72
2023/10/24 16:08:42;;;;;;;;;2.67;0.00;;;;;23.92;39.13;100068.03;4882162;29;45410;-73
2023/10/24 16:11:08;;;;;;;;;1.00;0.00;;;;;23.94;39.24;100074.00;4883035;29;45556;-72
2023/10/24 16:13:33;;;;;;;;;0.00;0.00;;;;;23.96;39.31;100069.28;4879148;29;46149;-72
2023/10/24 16:15:58;;;;;;;;;1.00;1.00;;;;;23.96;39.31;100064.78;4882553;29;45518;-73
2023/10/24 16:18:24;;;;;;;;;1.00;1.00;;;;;23.85;39.62;100050.31;4882913;29;45381;-78
2023/10/24 16:21:01;;;;;;;;;0.67;0.67;;;;;23.92;39.62;100050.28;4882333;29;45396;-75
2023/10/24 16:23:27;;;;;;;;;1.33;0.67;;;;;24.00;39.24;100064.31;4882626;29;46058;-75
2023/10/24 16:25:59;;;;;;;;;3.00;1.00;;;;;23.85;39.10;100036.22;4882778;29;45393;-74
2023/10/24 16:28:26;;;;;;;;;0.67;0.00;;;;;24.01;39.69;100053.50;4882346;29;45427;-75
2023/10/24 16:30:51;;;;;;;;;0.67;0.67;;;;;24.02;38.99;100055.13;4882942;29;45456;-74
2023/10/24 16:33:17;;;;;;;;;0.00;0.00;;;;;23.96;39.44;100042.69;4883839;29;47301;-74
2023/10/24 16:35:45;;;;;;;;;0.00;0.00;;;;;23.90;39.45;100024.94;4882527;29;45421;-74
2023/10/24 16:38:11;;;;;;;;;0.00;0.00;;;;;23.95;39.24;100041.06;4882550;29;45511;-74
2023/10/24 16:40:37;;;;;;;;;0.67;0.00;;;;;23.89;39.53;100026.00;4878177;29;45516;-75
2023/10/24 16:43:03;;;;;;;;;0.00;0.00;;;;;24.05;39.26;100051.22;4877300;29;46374;-74
2023/10/24 16:45:29;;;;;;;;;0.00;0.00;;;;;24.05;39.26;100054.69;4877816;29;45413;-74
2023/10/24 16:47:54;;;;;;;;;0.33;0.33;;;;;24.00;39.53;100054.53;4873048;29;45452;-74
2023/10/24 16:50:21;;;;;;;;;0.00;0.00;;;;;23.98;39.77;100037.16;4882365;29;45453;-72
2023/10/24 16:52:47;;;;;;;;;0.00;0.00;;;;;23.93;39.71;100035.16;4882514;29;45402;-74
2023/10/24 16:55:12;;;;;;;;;1.33;0.00;;;;;23.92;39.50;100034.34;4882703;29;45309;-73
2023/10/24 16:57:37;;;;;;;;;0.00;0.00;;;;;24.08;39.79;100050.78;4881182;29;45395;-74
2023/10/24 17:00:03;;;;;;;;;0.00;0.00;;;;;24.08;39.42;100050.78;4882746;29;45232;-73
2023/10/24 17:02:29;;;;;;;;;0.00;0.00;;;;;24.09;39.57;100056.94;4881633;29;46726;-74
2023/10/24 17:04:54;;;;;;;;;1.00;1.00;;;;;24.09;39.46;100051.63;4877558;29;45387;-73
2023/10/24 17:07:19;;;;;;;;;0.00;0.00;;;;;24.10;39.78;100048.75;4877593;29;45617;-74
2023/10/24 17:09:45;;;;;;;;;0.00;0.00;;;;;23.62;39.49;99985.25;4882070;29;45304;-73
2023/10/24 17:12:10;;;;;;;;;1.00;1.00;;;;;24.10;39.59;100051.41;4881272;29;46238;-73
2023/10/24 17:14:35;;;;;;;;;0.00;0.00;;;;;24.04;39.77;100047.78;4881393;29;45705;-75
2023/10/24 17:17:01;;;;;;;;;2.33;1.00;;;;;23.76;39.68;100008.28;4882456;29;45373;-76
2023/10/24 17:19:26;;;;;;;;;1.00;1.00;;;;;24.04;39.72;100044.28;4881550;29;45321;-86
2023/10/24 17:21:51;;;;;;;;;1.00;1.00;;;;;24.15;39.63;100056.06;4877281;29;45606;-76
2023/10/24 17:24:17;;;;;;;;;1.00;0.00;;;;;24.12;39.92;100059.16;4882489;29;45589;-75
2023/10/24 17:26:42;;;;;;;;;0.67;0.67;;;;;24.13;39.83;100061.59;4881497;29;45429;-75
2023/10/24 17:29:07;;;;;;;;;0.67;0.33;;;;;24.16;39.92;100068.34;4876765;29;45526;-75
2023/10/24 17:31:34;;;;;;;;;1.00;1.00;;;;;24.05;39.72;100041.41;4879211;29;46473;-76
2023/10/24 17:34:01;;;;;;;;;0.00;0.00;;;;;24.05;39.94;100040.59;4882171;29;45955;-76
2023/10/24 17:36:27;;;;;;;;;0.00;0.00;;;;;24.16;39.88;100060.34;4881516;29;45409;-76
2023/10/24 17:38:52;;;;;;;;;1.00;1.00;;;;;24.02;40.33;100046.34;4881187;29;45413;-75
2023/10/24 17:41:17;;;;;;;;;0.67;0.00;;;;;24.10;39.97;100051.41;4880472;29;46162;-76
2023/10/24 17:43:44;;;;;;;;;1.33;0.33;;;;;24.07;40.32;100049.19;4871553;29;45673;-76
2023/10/24 17:46:10;;;;;;;;;0.00;0.00;;;;;24.07;40.43;100049.19;4878815;29;45656;-75
2023/10/24 17:48:36;;;;;;;;;0.33;0.00;;;;;24.05;39.88;100053.88;4869047;29;45309;-75
2023/10/24 17:51:05;;;;;;;;;2.00;0.33;;;;;24.17;40.12;100064.66;4876433;28;46203;-75
2023/10/24 17:53:31;;;;;;;;;0.00;0.00;;;;;24.13;39.99;100058.13;4881781;29;45486;-76
2023/10/24 17:56:01;;;;;;;;;0.33;0.33;;;;;24.17;40.04;100062.78;4879032;29;45533;-75
2023/10/24 17:58:26;;;;;;;;;0.00;0.00;;;;;24.17;40.03;100068.09;4872265;29;45326;-76
2023/10/24 18:00:51;;;;;;;;;2.00;1.00;;;;;24.17;39.95;100062.78;4875544;29;47458;-75
2023/10/24 18:03:17;;;;;;;;;1.00;0.33;;;;;24.06;40.09;100040.41;4870124;29;45373;-75
2023/10/24 18:05:42;;;;;;;;;1.67;1.33;;;;;24.14;40.23;100052.63;4880652;29;45906;-75
2023/10/24 18:08:07;;;;;;;;;0.00;0.00;;;;;24.18;40.18;100059.13;4881105;29;45392;-79
2023/10/24 18:10:34;;;;;;;;;0.00;0.00;;;;;24.16;40.27;100050.56;4879647;29;47060;-79
2023/10/24 18:12:59;;;;;;;;;1.33;1.33;;;;;24.14;39.98;100046.47;4881128;29;45578;-79
2023/10/24 18:15:28;;;;;;;;;2.00;1.00;;;;;23.98;40.30;100026.53;4880738;29;45348;-77
2023/10/24 18:17:54;;;;;;;;;1.67;1.00;;;;;24.00;40.56;100017.31;4881626;29;45319;-79
2023/10/24 18:20:20;;;;;;;;;1.00;1.00;;;;;24.03;40.20;100021.41;4880800;29;46296;-80
2023/10/24 18:22:45;;;;;;;;;0.00;0.00;;;;;24.14;40.28;100041.97;4873350;29;45460;-79
2023/10/24 18:25:11;;;;;;;;;0.33;0.33;;;;;24.02;40.53;100019.78;4877853;29;45791;-79
2023/10/24 18:27:36;;;;;;;;;1.33;0.67;;;;;24.21;40.40;100038.44;4881857;29;45643;-80
2023/10/24 18:30:04;;;;;;;;;1.00;1.00;;;;;24.19;40.29;100025.38;4881350;29;47179;-80
2023/10/24 18:32:29;;;;;;;;;0.00;0.00;;;;;24.22;40.35;100037.44;4880649;29;45284;-80
2023/10/24 18:34:55;;;;;;;;;1.00;1.00;;;;;24.02;40.31;100001.19;4882339;29;45330;-80
2023/10/24 18:37:20;;;;;;;;;1.00;1.00;;;;;24.26;40.39;100033.31;4882556;29;45268;-80
2023/10/24 18:39:46;;;;;;;;;0.00;0.00;;;;;24.17;40.26;100020.28;4878989;29;46107;-79
2023/10/24 18:42:12;;;;;;;;;1.00;1.00;;;;;24.28;40.46;100033.94;4881224;29;45387;-76
2023/10/24 18:44:37;;;;;;;;;1.00;1.00;;;;;24.13;40.33;100010.28;4880619;29;45262;-76
2023/10/24 18:47:03;;;;;;;;;0.00;0.00;;;;;24.05;40.10;99998.91;4875461;29;45500;-80
2023/10/24 18:49:28;;;;;;;;;2.67;1.00;;;;;24.16;40.31;100008.03;4876176;29;46476;-80
2023/10/24 18:51:54;;;;;;;;;0.67;0.67;;;;;24.14;40.61;100006.63;4880813;29;45623;-80
2023/10/24 18:54:20;;;;;;;;;1.00;1.00;;;;;24.26;40.62;100034.16;4882050;29;45352;-80
2023/10/24 18:56:45;;;;;;;;;1.00;1.00;;;;;24.11;40.19;100017.66;4880989;29;45517;-80
2023/10/24 18:59:11;;;;;;;;;1.00;1.00;;;;;24.07;40.36;99996.03;4868397;29;45795;-80
2023/10/24 19:01:36;;;;;;;;;1.00;1.00;;;;;24.11;40.95;100001.72;4874827;29;45411;-79
2023/10/24 19:04:05;;;;;;;;;0.00;0.00;;;;;24.16;40.56;100007.22;4877391;29;45375;-80
2023/10/24 19:06:34;;;;;;;;;1.00;1.00;;;;;23.93;40.90;99966.91;4880640;29;45326;-80
2023/10/24 19:09:01;;;;;;;;;0.33;0.33;;;;;24.27;40.62;100011.88;4880317;29;46200;-80
2023/10/24 19:11:26;;;;;;;;;2.67;1.00;;;;;24.26;40.39;100014.69;4874125;29;45312;-80
2023/10/24 19:13:52;;;;;;;;;0.67;0.67;;;;;24.23;40.34;100007.16;4876784;29;45331;-82
2023/10/24 19:16:18;;;;;;;;;1.00;1.00;;;;;24.17;40.69;99991.03;4881308;29;45390;-79
2023/10/24 19:18:44;;;;;;;;;0.00;0.00;;;;;24.18;40.59;100000.66;4880226;29;47443;-80
2023/10/24 19:21:10;;;;;;;;;0.00;0.00;;;;;24.15;40.41;99993.09;4880406;29;45329;-79
2023/10/24 19:23:36;;;;;;;;;2.33;1.00;;;;;24.22;40.41;100006.34;4878843;29;45457;-77
2023/10/24 19:26:04;;;;;;;;;1.33;0.67;;;;;24.27;40.62;100005.75;4880926;29;45574;-77
2023/10/24 19:28:30;;;;;;;;;0.67;0.67;;;;;24.12;40.72;99982.09;4879790;29;46270;-76
2023/10/24 19:30:56;;;;;;;;;1.67;1.00;;;;;24.26;40.56;100006.72;4879124;29;46495;-77
2023/10/24 19:33:23;;;;;;;;;1.33;0.67;;;;;24.11;40.51;99975.16;4880249;29;45595;-76
2023/10/24 19:35:48;;;;;;;;;1.00;1.00;;;;;24.27;40.65;100006.56;4880293;29;45514;-75
2023/10/24 19:38:18;;;;;;;;;0.67;0.67;;;;;24.12;40.51;99968.81;4878163;29;46327;-74
2023/10/24 19:40:43;;;;;;;;;4.67;1.67;;;;;24.19;40.83;99977.56;4874645;29;45397;-75
2023/10/24 19:43:10;;;;;;;;;1.00;1.00;;;;;24.24;40.67;99992.84;4876926;29;45374;-76
2023/10/24 19:45:36;;;;;;;;;2.33;1.00;;;;;23.89;40.55;99925.03;4879785;29;45447;-76
2023/10/24 19:48:11;;;;;;;;;0.67;0.67;;;;;24.24;40.46;99980.38;4867139;29;48122;-75
2023/10/24 19:50:36;;;;;;;;;0.67;0.67;;;;;24.12;40.82;99960.84;4879636;29;45441;-76
2023/10/24 19:53:02;;;;;;;;;3.00;2.00;;;;;24.03;40.75;99942.50;4880077;29;45931;-75
2023/10/24 19:55:28;;;;;;;;;0.00;0.00;;;;;24.34;40.76;99984.41;4879513;29;45470;-77
2023/10/24 19:57:54;;;;;;;;;1.00;1.00;;;;;23.91;40.90;99915.84;4879093;29;47152;-79
2023/10/24 20:00:20;;;;;;;;;3.00;1.00;;;;;24.17;41.01;99953.84;4871594;29;45470;-78
2023/10/24 20:02:46;;;;;;;;;2.33;1.00;;;;;24.29;41.69;99959.31;4880319;29;45501;-77
2023/10/24 20:05:12;;;;;;;;;3.00;1.33;;;;;24.27;41.93;99957.91;4880054;29;45440;-77
2023/10/24 20:07:39;;;;;;;;;1.33;0.67;;;;;24.23;41.98;99952.16;4879900;29;46238;-77
2023/10/24 20:10:07;;;;;;;;;2.00;0.67;;;;;24.32;41.94;99962.56;4879639;29;45736;-76
2023/10/24 20:12:36;;;;;;;;;0.00;0.00;;;;;24.36;42.08;99963.72;4869626;29;45353;-76
2023/10/24 20:15:03;;;;;;;;;0.33;0.33;;;;;24.36;41.92;99953.91;4880425;29;45491;-76
2023/10/24 20:17:33;;;;;;;;;5.67;1.00;;;;;24.22;42.09;99929.28;4880024;29;45361;-78
2023/10/24 20:19:59;;;;;;;;;3.33;1.33;;;;;24.31;42.11;99940.47;4879168;29;45443;-79
2023/10/24 20:22:25;;;;;;;;;1.00;1.00;;;;;24.31;42.15;99939.66;4875921;29;45443;-72
2023/10/24 20:24:50;;;;;;;;;1.00;1.00;;;;;24.36;42.61;99953.91;4872625;29;45557;-72
2023/10/24 20:27:18;;;;;;;;;0.67;0.67;;;;;24.37;42.24;99941.44;4879405;29;47034;-72
2023/10/24 20:29:44;;;;;;;;;1.00;1.00;;;;;24.34;42.13;99936.56;4879007;29;45508;-73
2023/10/24 20:32:09;;;;;;;;;1.00;1.00;;;;;24.29;42.27;99916.78;4878801;29;45393;-73
2023/10/24 20:34:35;;;;;;;;;0.00;0.00;;;;;24.34;42.46;99928.59;4879451;29;45419;-73
2023/10/24 20:37:00;;;;;;;;;0.00;0.00;;;;;24.33;42.38;99913.69;4879435;29;46319;-73
2023/10/24 20:39:25;;;;;;;;;0.00;0.00;;;;;24.24;42.16;99899.81;4875412;29;45381;-72
2023/10/24 20:41:51;;;;;;;;;2.00;1.00;;;;;24.27;42.33;99899.41;4876843;29;45444;-72
2023/10/24 20:44:16;;;;;;;;;0.00;0.00;;;;;24.00;42.36;99854.44;4879024;29;47652;-74
2023/10/24 20:46:41;;;;;;;;;1.00;1.00;;;;;24.33;42.26;99903.06;4875896;29;47047;-75
2023/10/24 20:49:06;;;;;;;;;1.00;1.00;;;;;24.26;42.37;99892.44;4872682;29;45368;-75
2023/10/24 20:51:32;;;;;;;;;0.00;0.00;;;;;24.31;41.98;99895.28;4881890;29;45546;-75
2023/10/24 20:53:58;;;;;;;;;1.00;1.00;;;;;24.37;42.33;99901.56;4873230;29;45428;-75
2023/10/24 20:56:23;;;;;;;;;2.33;1.00;;;;;24.26;42.12;99885.31;4881977;29;46945;-75
2023/10/24 20:58:48;;;;;;;;;0.33;0.33;;;;;24.37;42.26;99898.91;4876422;29;45451;-74
2023/10/24 21:01:15;;;;;;;;;0.67;0.67;;;;;24.20;42.31;99869.41;4878836;29;45486;-74
2023/10/24 21:03:40;;;;;;;;;0.33;0.33;;;;;24.26;42.35;99880.00;4882324;29;45502;-75
2023/10/24 21:06:05;;;;;;;;;0.00;0.00;;;;;24.22;42.40;99875.31;4882468;29;46812;-76
2023/10/24 21:08:31;;;;;;;;;0.33;0.33;;;;;24.26;42.29;99874.69;4880467;29;45344;-75
2023/10/24 21:10:56;;;;;;;;;0.00;0.00;;;;;24.09;42.41;99839.84;4875426;29;45693;-76
2023/10/24 21:13:22;;;;;;;;;0.67;0.67;;;;;23.44;42.42;99738.22;4880526;29;45544;-75
2023/10/24 21:16:08;;;;;;;;;1.33;0.67;;;;;24.36;42.30;99876.81;4882401;29;46031;-76
2023/10/24 21:18:33;;;;;;;;;1.00;1.00;;;;;24.15;42.45;99840.81;4878193;29;45315;-78
2023/10/24 21:20:58;;;;;;;;;0.67;0.67;;;;;24.27;42.42;99851.56;4882116;29;45308;-77
2023/10/24 21:23:24;;;;;;;;;2.00;0.00;;;;;24.36;42.37;99865.38;4882367;29;45350;-77
2023/10/24 21:25:49;;;;;;;;;1.67;0.33;;;;;24.36;42.35;99852.91;4882031;29;47056;-77
2023/10/24 21:28:15;;;;;;;;;0.00;0.00;;;;;24.24;42.21;99834.19;4881673;29;45471;-78
2023/10/24 21:30:40;;;;;;;;;0.33;0.33;;;;;24.00;42.31;99794.16;4882420;29;45329;-76
2023/10/24 21:33:08;;;;;;;;;1.00;1.00;;;;;24.33;42.40;99839.25;4881092;29;45552;-76
2023/10/24 21:35:43;;;;;;;;;0.67;0.00;;;;;24.37;42.37;99840.44;4881165;29;46357;-75
2023/10/24 21:38:08;;;;;;;;;1.00;1.00;;;;;24.28;42.19;99829.25;4873032;29;45448;-75
2023/10/24 21:40:35;;;;;;;;;1.00;1.00;;;;;24.29;42.05;99828.25;4882355;29;45379;-76
2023/10/24 21:43:03;;;;;;;;;1.00;1.00;;;;;24.04;42.26;99783.91;4882198;29;45344;-76
2023/10/24 21:45:28;;;;;;;;;1.67;0.67;;;;;23.47;42.44;99698.00;4880233;29;47264;-76
2023/10/24 21:47:54;;;;;;;;;0.00;0.00;;;;;23.88;42.35;99742.78;4869201;29;45440;-76
2023/10/24 21:50:19;;;;;;;;;0.00;0.00;;;;;23.63;42.17;99713.38;4893769;29;45459;-79
2023/10/24 21:52:46;;;;;;;;;1.67;0.33;;;;;23.80;42.24;99725.28;4862504;29;45481;-77
2023/10/24 21:55:11;;;;;;;;;1.67;1.00;;;;;23.68;42.42;99696.00;4863384;29;45349;-77
2023/10/24 21:57:36;;;;;;;;;3.00;1.00;;;;;24.34;42.49;99803.66;4865923;29;45339;-76
2023/10/24 22:00:06;;;;;;;;;0.00;0.00;;;;;24.37;42.74;99798.72;4881876;29;45832;-79
2023/10/24 22:02:33;;;;;;;;;2.00;2.00;;;;;24.33;42.53;99786.88;4882490;29;45241;-84
2023/10/24 22:04:59;;;;;;;;;0.33;0.33;;;;;24.08;42.61;99753.19;4881807;29;46690;-84
2023/10/24 22:07:24;;;;;;;;;0.00;0.00;;;;;24.19;42.24;99754.31;4882800;29;51855;-85
